sensor_id;sensor_type;location;lat;lon;timestamp;P1;durP1;ratioP1;P2;durP2;ratioP2
10226;SDS011;15634;48.766;2.272;2023-02-01T00:02:13;18.17;;;6.57;;
10226;SDS011;15634;48.766;2.272;2023-02-01T00:04:41;13.07;;;6.65;;
10226;SDS011;15634;48.766;2.272;2023-02-01T00:07:08;11.40;;;6.40;;
10226;SDS011;15634;48.766;2.272;2023-02-01T00:09:35;16.00;;;6.47;;
10226;SDS011;15634;48.766;2.272;2023-02-01T00:12:02;11.77;;;6.38;;
10226;SDS011;15634;48.766;2.272;2023-02-01T00:14:28;18.20;;;7.43;;
10226;SDS011;15634;48.766;2.272;2023-02-01T00:16:57;12.38;;;6.70;;
10226;SDS011;15634;48.766;2.272;2023-02-01T00:19:24;12.35;;;6.55;;
10226;SDS011;15634;48.766;2.272;2023-02-01T00:21:52;13.68;;;6.57;;
10226;SDS011;15634;48.766;2.272;2023-02-01T00:24:19;11.77;;;6.15;;
10226;SDS011;15634;48.766;2.272;2023-02-01T00:26:45;13.65;;;6.38;;
10226;SDS011;15634;48.766;2.272;2023-02-01T00:29:13;15.77;;;6.72;;
10226;SDS011;15634;48.766;2.272;2023-02-01T00:31:42;17.50;;;6.13;;
10226;SDS011;15634;48.766;2.272;2023-02-01T00:34:09;10.32;;;5.45;;
10226;SDS011;15634;48.766;2.272;2023-02-01T00:36:37;12.10;;;5.93;;
10226;SDS011;15634;48.766;2.272;2023-02-01T00:39:05;15.32;;;6.57;;
10226;SDS011;15634;48.766;2.272;2023-02-01T00:41:32;11.18;;;5.88;;
10226;SDS011;15634;48.766;2.272;2023-02-01T00:43:58;15.27;;;6.57;;
10226;SDS011;15634;48.766;2.272;2023-02-01T00:46:26;13.27;;;6.30;;
10226;SDS011;15634;48.766;2.272;2023-02-01T00:48:53;12.70;;;6.20;;
10226;SDS011;15634;48.766;2.272;2023-02-01T00:51:20;16.73;;;6.45;;
10226;SDS011;15634;48.766;2.272;2023-02-01T00:53:48;11.00;;;5.95;;
10226;SDS011;15634;48.766;2.272;2023-02-01T00:56:16;19.00;;;6.40;;
10226;SDS011;15634;48.766;2.272;2023-02-01T00:58:43;11.80;;;6.25;;
10226;SDS011;15634;48.766;2.272;2023-02-01T01:01:11;17.17;;;6.20;;
10226;SDS011;15634;48.766;2.272;2023-02-01T01:03:40;15.30;;;6.63;;
10226;SDS011;15634;48.766;2.272;2023-02-01T01:06:08;13.90;;;6.18;;
10226;SDS011;15634;48.766;2.272;2023-02-01T01:08:36;16.00;;;6.50;;
10226;SDS011;15634;48.766;2.272;2023-02-01T01:11:06;14.88;;;6.10;;
10226;SDS011;15634;48.766;2.272;2023-02-01T01:13:35;17.20;;;6.53;;
10226;SDS011;15634;48.766;2.272;2023-02-01T01:16:03;12.90;;;6.25;;
10226;SDS011;15634;48.766;2.272;2023-02-01T01:18:31;13.65;;;6.15;;
10226;SDS011;15634;48.766;2.272;2023-02-01T01:20:58;10.35;;;5.72;;
10226;SDS011;15634;48.766;2.272;2023-02-01T01:23:26;12.25;;;6.30;;
10226;SDS011;15634;48.766;2.272;2023-02-01T01:25:53;18.90;;;6.95;;
10226;SDS011;15634;48.766;2.272;2023-02-01T01:28:20;14.52;;;6.28;;
10226;SDS011;15634;48.766;2.272;2023-02-01T01:30:48;12.30;;;6.20;;
10226;SDS011;15634;48.766;2.272;2023-02-01T01:33:14;14.15;;;6.20;;
10226;SDS011;15634;48.766;2.272;2023-02-01T01:35:41;18.65;;;5.88;;
10226;SDS011;15634;48.766;2.272;2023-02-01T01:38:08;11.32;;;5.60;;
10226;SDS011;15634;48.766;2.272;2023-02-01T01:40:35;12.50;;;6.10;;
10226;SDS011;15634;48.766;2.272;2023-02-01T01:43:02;12.35;;;5.80;;
10226;SDS011;15634;48.766;2.272;2023-02-01T01:45:30;17.25;;;5.93;;
10226;SDS011;15634;48.766;2.272;2023-02-01T01:47:59;13.05;;;5.80;;
10226;SDS011;15634;48.766;2.272;2023-02-01T01:50:28;12.85;;;5.55;;
10226;SDS011;15634;48.766;2.272;2023-02-01T01:52:59;12.05;;;4.85;;
10226;SDS011;15634;48.766;2.272;2023-02-01T01:55:27;17.50;;;5.30;;
10226;SDS011;15634;48.766;2.272;2023-02-01T01:57:57;11.35;;;5.20;;
10226;SDS011;15634;48.766;2.272;2023-02-01T02:00:25;13.68;;;5.32;;
10226;SDS011;15634;48.766;2.272;2023-02-01T02:02:53;16.13;;;5.15;;
10226;SDS011;15634;48.766;2.272;2023-02-01T02:05:23;13.63;;;4.40;;
10226;SDS011;15634;48.766;2.272;2023-02-01T02:07:50;14.40;;;4.90;;
10226;SDS011;15634;48.766;2.272;2023-02-01T02:10:17;13.68;;;4.93;;
10226;SDS011;15634;48.766;2.272;2023-02-01T02:12:45;12.95;;;3.90;;
10226;SDS011;15634;48.766;2.272;2023-02-01T02:15:14;10.90;;;4.18;;
10226;SDS011;15634;48.766;2.272;2023-02-01T02:17:42;10.50;;;4.28;;
10226;SDS011;15634;48.766;2.272;2023-02-01T02:20:35;15.38;;;4.57;;
10226;SDS011;15634;48.766;2.272;2023-02-01T02:29:49;11.73;;;3.70;;
10226;SDS011;15634;48.766;2.272;2023-02-01T02:32:39;14.30;;;3.60;;
10226;SDS011;15634;48.766;2.272;2023-02-01T02:35:24;11.30;;;3.75;;
10226;SDS011;15634;48.766;2.272;2023-02-01T02:37:54;14.55;;;3.88;;
10226;SDS011;15634;48.766;2.272;2023-02-01T02:40:30;14.35;;;4.03;;
10226;SDS011;15634;48.766;2.272;2023-02-01T02:43:02;11.35;;;3.83;;
10226;SDS011;15634;48.766;2.272;2023-02-01T02:45:51;17.70;;;3.78;;
10226;SDS011;15634;48.766;2.272;2023-02-01T02:48:38;19.88;;;4.35;;
10226;SDS011;15634;48.766;2.272;2023-02-01T02:51:11;13.45;;;3.90;;
10226;SDS011;15634;48.766;2.272;2023-02-01T02:53:58;14.63;;;3.75;;
10226;SDS011;15634;48.766;2.272;2023-02-01T02:56:50;14.45;;;4.18;;
10226;SDS011;15634;48.766;2.272;2023-02-01T02:59:36;16.80;;;4.80;;
10226;SDS011;15634;48.766;2.272;2023-02-01T03:02:22;14.25;;;4.13;;
10226;SDS011;15634;48.766;2.272;2023-02-01T03:10:33;14.75;;;3.72;;
10226;SDS011;15634;48.766;2.272;2023-02-01T03:13:04;14.87;;;3.40;;
10226;SDS011;15634;48.766;2.272;2023-02-01T03:15:35;16.67;;;4.05;;
10226;SDS011;15634;48.766;2.272;2023-02-01T03:18:03;14.40;;;3.70;;
10226;SDS011;15634;48.766;2.272;2023-02-01T03:20:33;18.95;;;4.22;;
10226;SDS011;15634;48.766;2.272;2023-02-01T03:23:00;21.45;;;5.18;;
10226;SDS011;15634;48.766;2.272;2023-02-01T03:25:30;17.10;;;4.57;;
10226;SDS011;15634;48.766;2.272;2023-02-01T03:27:57;14.98;;;3.80;;
10226;SDS011;15634;48.766;2.272;2023-02-01T03:30:28;17.85;;;4.00;;
10226;SDS011;15634;48.766;2.272;2023-02-01T03:32:57;16.13;;;4.07;;
10226;SDS011;15634;48.766;2.272;2023-02-01T03:35:27;12.90;;;4.55;;
10226;SDS011;15634;48.766;2.272;2023-02-01T03:37:57;22.48;;;4.97;;
10226;SDS011;15634;48.766;2.272;2023-02-01T03:40:29;18.00;;;4.85;;
10226;SDS011;15634;48.766;2.272;2023-02-01T03:42:58;18.15;;;4.55;;
10226;SDS011;15634;48.766;2.272;2023-02-01T03:45:26;16.50;;;4.20;;
10226;SDS011;15634;48.766;2.272;2023-02-01T03:47:56;22.70;;;4.70;;
10226;SDS011;15634;48.766;2.272;2023-02-01T03:50:23;14.52;;;4.38;;
10226;SDS011;15634;48.766;2.272;2023-02-01T03:52:52;14.23;;;4.00;;
10226;SDS011;15634;48.766;2.272;2023-02-01T03:55:21;25.23;;;4.32;;
10226;SDS011;15634;48.766;2.272;2023-02-01T03:57:50;21.13;;;4.28;;
10226;SDS011;15634;48.766;2.272;2023-02-01T04:00:20;17.60;;;4.15;;
10226;SDS011;15634;48.766;2.272;2023-02-01T04:02:48;14.05;;;3.97;;
10226;SDS011;15634;48.766;2.272;2023-02-01T04:05:15;17.52;;;4.68;;
10226;SDS011;15634;48.766;2.272;2023-02-01T04:07:42;16.48;;;4.10;;
10226;SDS011;15634;48.766;2.272;2023-02-01T04:10:09;14.57;;;3.75;;
10226;SDS011;15634;48.766;2.272;2023-02-01T04:12:37;21.02;;;3.97;;
10226;SDS011;15634;48.766;2.272;2023-02-01T04:15:05;23.25;;;5.75;;
10226;SDS011;15634;48.766;2.272;2023-02-01T04:17:33;12.70;;;4.05;;
10226;SDS011;15634;48.766;2.272;2023-02-01T04:19:59;16.15;;;5.00;;
10226;SDS011;15634;48.766;2.272;2023-02-01T04:22:26;17.17;;;4.00;;
10226;SDS011;15634;48.766;2.272;2023-02-01T04:24:53;21.65;;;4.55;;
10226;SDS011;15634;48.766;2.272;2023-02-01T04:27:20;18.90;;;4.35;;
10226;SDS011;15634;48.766;2.272;2023-02-01T04:29:47;16.10;;;4.03;;
10226;SDS011;15634;48.766;2.272;2023-02-01T04:32:16;13.73;;;4.30;;
10226;SDS011;15634;48.766;2.272;2023-02-01T04:34:42;16.55;;;4.07;;
10226;SDS011;15634;48.766;2.272;2023-02-01T04:37:09;20.45;;;4.53;;
10226;SDS011;15634;48.766;2.272;2023-02-01T04:39:36;15.98;;;4.32;;
10226;SDS011;15634;48.766;2.272;2023-02-01T04:42:02;19.13;;;4.25;;
10226;SDS011;15634;48.766;2.272;2023-02-01T04:44:29;15.18;;;4.00;;
10226;SDS011;15634;48.766;2.272;2023-02-01T04:46:56;18.75;;;4.57;;
10226;SDS011;15634;48.766;2.272;2023-02-01T04:49:25;17.30;;;4.50;;
10226;SDS011;15634;48.766;2.272;2023-02-01T04:51:51;19.27;;;4.35;;
10226;SDS011;15634;48.766;2.272;2023-02-01T04:54:18;17.90;;;4.00;;
10226;SDS011;15634;48.766;2.272;2023-02-01T04:56:45;18.52;;;4.50;;
10226;SDS011;15634;48.766;2.272;2023-02-01T04:59:11;13.02;;;4.47;;
10226;SDS011;15634;48.766;2.272;2023-02-01T05:01:38;12.95;;;4.47;;
10226;SDS011;15634;48.766;2.272;2023-02-01T05:04:05;10.75;;;4.07;;
10226;SDS011;15634;48.766;2.272;2023-02-01T05:06:33;23.17;;;4.22;;
10226;SDS011;15634;48.766;2.272;2023-02-01T05:09:00;17.70;;;3.72;;
10226;SDS011;15634;48.766;2.272;2023-02-01T05:11:26;17.02;;;3.95;;
10226;SDS011;15634;48.766;2.272;2023-02-01T05:14:10;17.42;;;4.47;;
10226;SDS011;15634;48.766;2.272;2023-02-01T05:16:37;15.63;;;3.67;;
10226;SDS011;15634;48.766;2.272;2023-02-01T05:19:04;18.50;;;3.50;;
10226;SDS011;15634;48.766;2.272;2023-02-01T05:21:30;17.23;;;4.60;;
10226;SDS011;15634;48.766;2.272;2023-02-01T05:23:58;17.17;;;4.78;;
10226;SDS011;15634;48.766;2.272;2023-02-01T05:26:40;18.70;;;4.13;;
10226;SDS011;15634;48.766;2.272;2023-02-01T05:29:07;22.98;;;6.47;;
10226;SDS011;15634;48.766;2.272;2023-02-01T05:31:34;17.42;;;4.38;;
10226;SDS011;15634;48.766;2.272;2023-02-01T05:34:01;20.13;;;4.53;;
10226;SDS011;15634;48.766;2.272;2023-02-01T05:36:28;16.90;;;4.95;;
10226;SDS011;15634;48.766;2.272;2023-02-01T05:38:55;18.05;;;3.95;;
10226;SDS011;15634;48.766;2.272;2023-02-01T05:41:23;18.83;;;4.45;;
10226;SDS011;15634;48.766;2.272;2023-02-01T05:43:50;11.57;;;3.83;;
10226;SDS011;15634;48.766;2.272;2023-02-01T05:46:16;16.10;;;4.50;;
10226;SDS011;15634;48.766;2.272;2023-02-01T05:48:43;13.05;;;3.83;;
10226;SDS011;15634;48.766;2.272;2023-02-01T05:51:10;15.85;;;4.13;;
10226;SDS011;15634;48.766;2.272;2023-02-01T05:53:37;20.48;;;4.60;;
10226;SDS011;15634;48.766;2.272;2023-02-01T05:56:04;21.23;;;3.75;;
10226;SDS011;15634;48.766;2.272;2023-02-01T05:58:33;21.63;;;4.40;;
10226;SDS011;15634;48.766;2.272;2023-02-01T06:01:00;20.63;;;4.50;;
10226;SDS011;15634;48.766;2.272;2023-02-01T06:03:27;18.10;;;4.47;;
10226;SDS011;15634;48.766;2.272;2023-02-01T06:05:54;17.13;;;3.92;;
10226;SDS011;15634;48.766;2.272;2023-02-01T06:08:20;17.65;;;4.22;;
10226;SDS011;15634;48.766;2.272;2023-02-01T06:10:49;22.17;;;5.85;;
10226;SDS011;15634;48.766;2.272;2023-02-01T06:13:16;14.73;;;4.10;;
10226;SDS011;15634;48.766;2.272;2023-02-01T06:15:44;19.83;;;4.45;;
10226;SDS011;15634;48.766;2.272;2023-02-01T06:18:10;20.42;;;4.57;;
10226;SDS011;15634;48.766;2.272;2023-02-01T06:20:37;23.00;;;4.90;;
10226;SDS011;15634;48.766;2.272;2023-02-01T06:23:03;21.25;;;4.55;;
10226;SDS011;15634;48.766;2.272;2023-02-01T06:25:30;16.58;;;4.30;;
10226;SDS011;15634;48.766;2.272;2023-02-01T06:27:59;17.60;;;4.50;;
10226;SDS011;15634;48.766;2.272;2023-02-01T06:30:26;17.02;;;4.50;;
10226;SDS011;15634;48.766;2.272;2023-02-01T06:32:54;22.10;;;4.68;;
10226;SDS011;15634;48.766;2.272;2023-02-01T06:35:21;13.55;;;4.30;;
10226;SDS011;15634;48.766;2.272;2023-02-01T06:37:47;22.75;;;4.68;;
10226;SDS011;15634;48.766;2.272;2023-02-01T06:40:14;18.45;;;4.75;;
10226;SDS011;15634;48.766;2.272;2023-02-01T06:42:41;19.85;;;4.70;;
10226;SDS011;15634;48.766;2.272;2023-02-01T06:45:08;21.40;;;5.10;;
10226;SDS011;15634;48.766;2.272;2023-02-01T06:47:35;17.65;;;4.18;;
10226;SDS011;15634;48.766;2.272;2023-02-01T06:50:04;16.90;;;4.30;;
10226;SDS011;15634;48.766;2.272;2023-02-01T06:52:31;17.70;;;5.03;;
10226;SDS011;15634;48.766;2.272;2023-02-01T06:54:58;17.38;;;4.35;;
10226;SDS011;15634;48.766;2.272;2023-02-01T06:57:24;18.95;;;4.25;;
10226;SDS011;15634;48.766;2.272;2023-02-01T06:59:55;16.77;;;4.18;;
10226;SDS011;15634;48.766;2.272;2023-02-01T07:02:23;16.50;;;4.28;;
10226;SDS011;15634;48.766;2.272;2023-02-01T07:04:50;20.08;;;4.72;;
10226;SDS011;15634;48.766;2.272;2023-02-01T07:07:18;21.70;;;4.72;;
10226;SDS011;15634;48.766;2.272;2023-02-01T07:09:47;17.52;;;4.15;;
10226;SDS011;15634;48.766;2.272;2023-02-01T07:12:14;22.85;;;4.57;;
10226;SDS011;15634;48.766;2.272;2023-02-01T07:14:40;21.05;;;4.25;;
10226;SDS011;15634;48.766;2.272;2023-02-01T07:17:07;14.35;;;4.60;;
10226;SDS011;15634;48.766;2.272;2023-02-01T07:19:34;18.33;;;4.75;;
10226;SDS011;15634;48.766;2.272;2023-02-01T07:22:01;23.55;;;4.70;;
10226;SDS011;15634;48.766;2.272;2023-02-01T07:24:29;19.52;;;4.10;;
10226;SDS011;15634;48.766;2.272;2023-02-01T07:26:56;17.27;;;4.57;;
10226;SDS011;15634;48.766;2.272;2023-02-01T07:29:23;19.13;;;4.97;;
10226;SDS011;15634;48.766;2.272;2023-02-01T07:31:49;26.10;;;4.95;;
10226;SDS011;15634;48.766;2.272;2023-02-01T07:34:16;19.70;;;4.53;;
10226;SDS011;15634;48.766;2.272;2023-02-01T07:36:43;18.65;;;4.57;;
10226;SDS011;15634;48.766;2.272;2023-02-01T07:39:10;22.45;;;5.38;;
10226;SDS011;15634;48.766;2.272;2023-02-01T07:41:38;21.42;;;4.30;;
10226;SDS011;15634;48.766;2.272;2023-02-01T07:44:05;22.92;;;5.15;;
10226;SDS011;15634;48.766;2.272;2023-02-01T07:46:32;17.95;;;4.80;;
10226;SDS011;15634;48.766;2.272;2023-02-01T07:48:58;23.08;;;5.50;;
10226;SDS011;15634;48.766;2.272;2023-02-01T07:51:25;24.38;;;4.80;;
10226;SDS011;15634;48.766;2.272;2023-02-01T07:53:52;24.08;;;4.85;;
10226;SDS011;15634;48.766;2.272;2023-02-01T07:56:19;19.45;;;4.25;;
10226;SDS011;15634;48.766;2.272;2023-02-01T07:58:50;19.95;;;4.38;;
10226;SDS011;15634;48.766;2.272;2023-02-01T08:01:18;13.32;;;3.78;;
10226;SDS011;15634;48.766;2.272;2023-02-01T08:03:49;17.42;;;4.30;;
10226;SDS011;15634;48.766;2.272;2023-02-01T08:06:17;26.20;;;5.13;;
10226;SDS011;15634;48.766;2.272;2023-02-01T08:08:44;20.77;;;4.45;;
10226;SDS011;15634;48.766;2.272;2023-02-01T08:11:12;18.67;;;4.75;;
10226;SDS011;15634;48.766;2.272;2023-02-01T08:13:39;16.00;;;4.53;;
10226;SDS011;15634;48.766;2.272;2023-02-01T08:16:08;23.83;;;4.90;;
10226;SDS011;15634;48.766;2.272;2023-02-01T08:18:36;17.65;;;4.75;;
10226;SDS011;15634;48.766;2.272;2023-02-01T08:21:06;27.48;;;4.95;;
10226;SDS011;15634;48.766;2.272;2023-02-01T08:23:35;20.20;;;4.82;;
10226;SDS011;15634;48.766;2.272;2023-02-01T08:26:06;15.75;;;4.18;;
10226;SDS011;15634;48.766;2.272;2023-02-01T08:28:34;19.35;;;4.35;;
10226;SDS011;15634;48.766;2.272;2023-02-01T08:31:03;23.73;;;5.18;;
10226;SDS011;15634;48.766;2.272;2023-02-01T08:33:33;19.80;;;4.65;;
10226;SDS011;15634;48.766;2.272;2023-02-01T08:36:01;16.67;;;4.15;;
10226;SDS011;15634;48.766;2.272;2023-02-01T08:38:28;25.67;;;5.40;;
10226;SDS011;15634;48.766;2.272;2023-02-01T08:40:54;27.20;;;4.78;;
10226;SDS011;15634;48.766;2.272;2023-02-01T08:43:21;16.88;;;4.55;;
10226;SDS011;15634;48.766;2.272;2023-02-01T08:45:48;22.33;;;5.45;;
10226;SDS011;15634;48.766;2.272;2023-02-01T08:48:16;17.75;;;4.65;;
10226;SDS011;15634;48.766;2.272;2023-02-01T08:50:44;20.30;;;5.00;;
10226;SDS011;15634;48.766;2.272;2023-02-01T08:53:10;19.52;;;5.05;;
10226;SDS011;15634;48.766;2.272;2023-02-01T08:55:39;19.58;;;4.53;;
10226;SDS011;15634;48.766;2.272;2023-02-01T08:58:05;18.73;;;4.70;;
10226;SDS011;15634;48.766;2.272;2023-02-01T09:00:32;17.50;;;5.15;;
10226;SDS011;15634;48.766;2.272;2023-02-01T09:02:59;20.90;;;4.30;;
10226;SDS011;15634;48.766;2.272;2023-02-01T09:05:25;25.40;;;4.90;;
10226;SDS011;15634;48.766;2.272;2023-02-01T09:07:54;20.88;;;4.72;;
10226;SDS011;15634;48.766;2.272;2023-02-01T09:10:21;18.48;;;4.80;;
10226;SDS011;15634;48.766;2.272;2023-02-01T09:12:47;25.40;;;5.03;;
10226;SDS011;15634;48.766;2.272;2023-02-01T09:15:14;19.13;;;4.55;;
10226;SDS011;15634;48.766;2.272;2023-02-01T09:17:41;26.65;;;5.28;;
10226;SDS011;15634;48.766;2.272;2023-02-01T09:20:09;20.73;;;4.70;;
10226;SDS011;15634;48.766;2.272;2023-02-01T09:22:36;18.35;;;5.00;;
10226;SDS011;15634;48.766;2.272;2023-02-01T09:25:05;17.90;;;4.95;;
10226;SDS011;15634;48.766;2.272;2023-02-01T09:27:33;18.20;;;4.93;;
10226;SDS011;15634;48.766;2.272;2023-02-01T09:29:59;21.52;;;5.30;;
10226;SDS011;15634;48.766;2.272;2023-02-01T09:32:26;17.77;;;4.25;;
10226;SDS011;15634;48.766;2.272;2023-02-01T09:34:53;23.63;;;5.00;;
10226;SDS011;15634;48.766;2.272;2023-02-01T09:37:19;19.25;;;5.63;;
10226;SDS011;15634;48.766;2.272;2023-02-01T09:39:46;19.42;;;4.68;;
10226;SDS011;15634;48.766;2.272;2023-02-01T09:42:19;19.55;;;4.63;;
10226;SDS011;15634;48.766;2.272;2023-02-01T09:45:02;22.80;;;5.27;;
10226;SDS011;15634;48.766;2.272;2023-02-01T09:47:37;19.23;;;5.32;;
10226;SDS011;15634;48.766;2.272;2023-02-01T09:50:11;17.27;;;4.53;;
10226;SDS011;15634;48.766;2.272;2023-02-01T09:52:43;16.95;;;4.55;;
10226;SDS011;15634;48.766;2.272;2023-02-01T09:55:13;20.85;;;4.68;;
10226;SDS011;15634;48.766;2.272;2023-02-01T09:57:45;20.10;;;4.75;;
10226;SDS011;15634;48.766;2.272;2023-02-01T10:00:17;21.00;;;4.85;;
10226;SDS011;15634;48.766;2.272;2023-02-01T10:02:46;21.10;;;5.03;;
10226;SDS011;15634;48.766;2.272;2023-02-01T10:05:14;17.45;;;5.00;;
10226;SDS011;15634;48.766;2.272;2023-02-01T10:07:43;17.50;;;5.32;;
10226;SDS011;15634;48.766;2.272;2023-02-01T10:12:57;16.52;;;5.10;;
10226;SDS011;15634;48.766;2.272;2023-02-01T10:15:37;24.60;;;4.25;;
10226;SDS011;15634;48.766;2.272;2023-02-01T10:18:19;21.55;;;5.05;;
10226;SDS011;15634;48.766;2.272;2023-02-01T10:20:56;15.00;;;4.28;;
10226;SDS011;15634;48.766;2.272;2023-02-01T10:23:32;15.20;;;4.47;;
10226;SDS011;15634;48.766;2.272;2023-02-01T10:26:06;18.02;;;4.00;;
10226;SDS011;15634;48.766;2.272;2023-02-01T10:28:37;16.88;;;4.28;;
10226;SDS011;15634;48.766;2.272;2023-02-01T10:31:04;16.58;;;4.13;;
10226;SDS011;15634;48.766;2.272;2023-02-01T10:33:32;15.63;;;4.32;;
10226;SDS011;15634;48.766;2.272;2023-02-01T10:36:12;15.10;;;4.07;;
10226;SDS011;15634;48.766;2.272;2023-02-01T10:38:42;17.35;;;4.13;;
10226;SDS011;15634;48.766;2.272;2023-02-01T10:41:11;18.55;;;4.43;;
10226;SDS011;15634;48.766;2.272;2023-02-01T10:43:40;18.30;;;4.93;;
10226;SDS011;15634;48.766;2.272;2023-02-01T10:46:08;22.80;;;4.30;;
10226;SDS011;15634;48.766;2.272;2023-02-01T10:48:35;15.73;;;4.57;;
10226;SDS011;15634;48.766;2.272;2023-02-01T10:51:02;16.58;;;4.72;;
10226;SDS011;15634;48.766;2.272;2023-02-01T10:53:33;25.83;;;4.85;;
10226;SDS011;15634;48.766;2.272;2023-02-01T10:56:05;21.45;;;4.38;;
10226;SDS011;15634;48.766;2.272;2023-02-01T10:58:33;16.90;;;4.35;;
10226;SDS011;15634;48.766;2.272;2023-02-01T11:01:03;18.25;;;4.78;;
10226;SDS011;15634;48.766;2.272;2023-02-01T11:03:36;17.70;;;4.18;;
10226;SDS011;15634;48.766;2.272;2023-02-01T11:08:52;13.48;;;4.53;;
10226;SDS011;15634;48.766;2.272;2023-02-01T11:11:20;19.13;;;4.53;;
10226;SDS011;15634;48.766;2.272;2023-02-01T11:13:51;16.88;;;4.35;;
10226;SDS011;15634;48.766;2.272;2023-02-01T11:16:30;17.17;;;5.13;;
10226;SDS011;15634;48.766;2.272;2023-02-01T11:18:59;17.00;;;3.95;;
10226;SDS011;15634;48.766;2.272;2023-02-01T11:21:26;20.23;;;4.65;;
10226;SDS011;15634;48.766;2.272;2023-02-01T11:23:53;20.00;;;4.57;;
10226;SDS011;15634;48.766;2.272;2023-02-01T11:26:21;12.82;;;4.35;;
10226;SDS011;15634;48.766;2.272;2023-02-01T11:28:54;19.58;;;4.82;;
10226;SDS011;15634;48.766;2.272;2023-02-01T11:31:24;16.20;;;4.20;;
10226;SDS011;15634;48.766;2.272;2023-02-01T11:33:53;14.57;;;3.90;;
10226;SDS011;15634;48.766;2.272;2023-02-01T11:36:24;23.13;;;4.87;;
10226;SDS011;15634;48.766;2.272;2023-02-01T11:38:54;17.15;;;4.50;;
10226;SDS011;15634;48.766;2.272;2023-02-01T11:41:35;19.85;;;5.30;;
10226;SDS011;15634;48.766;2.272;2023-02-01T11:44:15;18.07;;;4.43;;
10226;SDS011;15634;48.766;2.272;2023-02-01T11:46:46;18.52;;;5.07;;
10226;SDS011;15634;48.766;2.272;2023-02-01T11:49:18;18.13;;;4.38;;
10226;SDS011;15634;48.766;2.272;2023-02-01T11:51:50;17.60;;;4.28;;
10226;SDS011;15634;48.766;2.272;2023-02-01T11:54:30;22.02;;;4.93;;
10226;SDS011;15634;48.766;2.272;2023-02-01T11:57:10;18.92;;;4.30;;
10226;SDS011;15634;48.766;2.272;2023-02-01T11:59:51;23.88;;;5.05;;
10226;SDS011;15634;48.766;2.272;2023-02-01T12:02:39;19.20;;;3.88;;
10226;SDS011;15634;48.766;2.272;2023-02-01T12:05:27;16.88;;;4.15;;
10226;SDS011;15634;48.766;2.272;2023-02-01T12:08:01;20.58;;;4.22;;
10226;SDS011;15634;48.766;2.272;2023-02-01T12:10:36;20.85;;;4.28;;
10226;SDS011;15634;48.766;2.272;2023-02-01T12:13:12;20.98;;;4.43;;
10226;SDS011;15634;48.766;2.272;2023-02-01T12:15:46;20.77;;;4.70;;
10226;SDS011;15634;48.766;2.272;2023-02-01T12:18:33;15.88;;;4.55;;
10226;SDS011;15634;48.766;2.272;2023-02-01T12:21:17;15.02;;;4.43;;
10226;SDS011;15634;48.766;2.272;2023-02-01T12:24:09;17.60;;;4.03;;
10226;SDS011;15634;48.766;2.272;2023-02-01T12:26:47;16.33;;;4.47;;
10226;SDS011;15634;48.766;2.272;2023-02-01T12:32:22;21.13;;;4.22;;
10226;SDS011;15634;48.766;2.272;2023-02-01T12:35:02;17.58;;;4.50;;
10226;SDS011;15634;48.766;2.272;2023-02-01T12:37:44;14.63;;;3.95;;
10226;SDS011;15634;48.766;2.272;2023-02-01T12:40:23;20.33;;;4.32;;
10226;SDS011;15634;48.766;2.272;2023-02-01T12:42:57;13.32;;;4.13;;
10226;SDS011;15634;48.766;2.272;2023-02-01T12:45:30;14.05;;;3.95;;
10226;SDS011;15634;48.766;2.272;2023-02-01T12:47:59;17.52;;;4.03;;
10226;SDS011;15634;48.766;2.272;2023-02-01T12:50:31;14.63;;;3.97;;
10226;SDS011;15634;48.766;2.272;2023-02-01T12:53:06;17.77;;;4.72;;
10226;SDS011;15634;48.766;2.272;2023-02-01T12:55:36;18.50;;;4.03;;
10226;SDS011;15634;48.766;2.272;2023-02-01T12:58:06;17.42;;;3.67;;
10226;SDS011;15634;48.766;2.272;2023-02-01T13:00:43;17.52;;;4.63;;
10226;SDS011;15634;48.766;2.272;2023-02-01T13:03:11;17.67;;;4.68;;
10226;SDS011;15634;48.766;2.272;2023-02-01T13:05:44;18.77;;;4.37;;
10226;SDS011;15634;48.766;2.272;2023-02-01T13:10:46;18.55;;;4.13;;
10226;SDS011;15634;48.766;2.272;2023-02-01T13:13:16;14.93;;;3.70;;
10226;SDS011;15634;48.766;2.272;2023-02-01T13:15:47;14.82;;;3.65;;
10226;SDS011;15634;48.766;2.272;2023-02-01T13:18:17;16.77;;;4.68;;
10226;SDS011;15634;48.766;2.272;2023-02-01T13:20:47;16.08;;;3.70;;
10226;SDS011;15634;48.766;2.272;2023-02-01T13:23:21;13.57;;;4.43;;
10226;SDS011;15634;48.766;2.272;2023-02-01T13:25:51;16.25;;;4.50;;
10226;SDS011;15634;48.766;2.272;2023-02-01T13:28:21;15.68;;;4.28;;
10226;SDS011;15634;48.766;2.272;2023-02-01T13:30:56;16.10;;;4.38;;
10226;SDS011;15634;48.766;2.272;2023-02-01T13:33:59;20.85;;;4.43;;
10226;SDS011;15634;48.766;2.272;2023-02-01T13:36:45;13.50;;;3.83;;
10226;SDS011;15634;48.766;2.272;2023-02-01T13:39:31;13.38;;;3.97;;
10226;SDS011;15634;48.766;2.272;2023-02-01T13:42:04;13.90;;;3.78;;
10226;SDS011;15634;48.766;2.272;2023-02-01T13:44:42;20.15;;;4.55;;
10226;SDS011;15634;48.766;2.272;2023-02-01T13:47:13;14.82;;;4.20;;
10226;SDS011;15634;48.766;2.272;2023-02-01T13:49:45;17.67;;;3.63;;
10226;SDS011;15634;48.766;2.272;2023-02-01T13:52:22;21.10;;;4.32;;
10226;SDS011;15634;48.766;2.272;2023-02-01T13:55:01;18.40;;;4.63;;
10226;SDS011;15634;48.766;2.272;2023-02-01T13:57:35;17.60;;;4.22;;
10226;SDS011;15634;48.766;2.272;2023-02-01T14:00:06;18.88;;;4.35;;
10226;SDS011;15634;48.766;2.272;2023-02-01T14:06:00;20.88;;;4.35;;
10226;SDS011;15634;48.766;2.272;2023-02-01T14:08:42;23.08;;;4.57;;
10226;SDS011;15634;48.766;2.272;2023-02-01T14:14:06;17.05;;;4.00;;
10226;SDS011;15634;48.766;2.272;2023-02-01T14:19:47;17.98;;;4.60;;
10226;SDS011;15634;48.766;2.272;2023-02-01T14:22:33;20.40;;;4.47;;
10226;SDS011;15634;48.766;2.272;2023-02-01T14:25:00;20.17;;;3.95;;
10226;SDS011;15634;48.766;2.272;2023-02-01T14:27:29;18.60;;;4.35;;
10226;SDS011;15634;48.766;2.272;2023-02-01T14:29:58;13.80;;;3.60;;
10226;SDS011;15634;48.766;2.272;2023-02-01T14:32:26;15.23;;;3.80;;
10226;SDS011;15634;48.766;2.272;2023-02-01T14:34:59;20.33;;;4.37;;
10226;SDS011;15634;48.766;2.272;2023-02-01T14:37:26;14.10;;;4.22;;
10226;SDS011;15634;48.766;2.272;2023-02-01T14:39:55;15.50;;;4.22;;
10226;SDS011;15634;48.766;2.272;2023-02-01T14:42:24;12.70;;;3.47;;
10226;SDS011;15634;48.766;2.272;2023-02-01T14:44:54;16.77;;;4.18;;
10226;SDS011;15634;48.766;2.272;2023-02-01T14:47:31;13.05;;;3.55;;
10226;SDS011;15634;48.766;2.272;2023-02-01T14:53:04;17.48;;;4.30;;
10226;SDS011;15634;48.766;2.272;2023-02-01T14:55:38;18.40;;;4.38;;
10226;SDS011;15634;48.766;2.272;2023-02-01T14:58:12;14.02;;;4.18;;
10226;SDS011;15634;48.766;2.272;2023-02-01T15:00:49;11.18;;;3.53;;
10226;SDS011;15634;48.766;2.272;2023-02-01T15:06:13;11.15;;;3.72;;
10226;SDS011;15634;48.766;2.272;2023-02-01T15:08:47;10.68;;;4.10;;
10226;SDS011;15634;48.766;2.272;2023-02-01T15:11:15;18.48;;;3.80;;
10226;SDS011;15634;48.766;2.272;2023-02-01T15:13:47;15.32;;;3.67;;
10226;SDS011;15634;48.766;2.272;2023-02-01T15:16:16;13.85;;;3.55;;
10226;SDS011;15634;48.766;2.272;2023-02-01T15:18:44;15.15;;;3.65;;
10226;SDS011;15634;48.766;2.272;2023-02-01T15:21:15;15.85;;;3.67;;
10226;SDS011;15634;48.766;2.272;2023-02-01T15:23:43;17.13;;;3.80;;
10226;SDS011;15634;48.766;2.272;2023-02-01T15:26:11;17.58;;;4.22;;
10226;SDS011;15634;48.766;2.272;2023-02-01T15:28:37;14.73;;;4.43;;
10226;SDS011;15634;48.766;2.272;2023-02-01T15:31:04;17.45;;;3.58;;